createdAt,value
2023-05-28T00:00:47.851Z,14.50
2023-05-28T00:03:18.638Z,14.50
2023-05-28T00:05:46.728Z,14.40
2023-05-28T00:08:15.520Z,14.40
2023-05-28T00:10:43.960Z,14.40
2023-05-28T00:13:11.355Z,14.40
2023-05-28T00:15:39.080Z,14.40
2023-05-28T00:18:06.575Z,14.30
2023-05-28T00:20:34.342Z,14.30
2023-05-28T00:23:01.951Z,14.30
2023-05-28T00:25:29.462Z,14.20
2023-05-28T00:27:57.158Z,14.20
2023-05-28T00:30:26.337Z,14.10
2023-05-28T00:32:53.678Z,14.10
2023-05-28T00:35:21.138Z,14.10
2023-05-28T00:37:48.657Z,14.10
2023-05-28T00:40:19.087Z,14.10
2023-05-28T00:42:47.267Z,14.00
2023-05-28T00:45:15.236Z,14.00
2023-05-28T00:47:43.643Z,14.00
2023-05-28T00:50:14.062Z,14.00
2023-05-28T00:52:42.311Z,14.00
2023-05-28T00:55:15.676Z,13.90
2023-05-28T00:57:44.020Z,13.90
2023-05-28T01:00:12.380Z,13.80
2023-05-28T01:02:40.174Z,13.80
2023-05-28T01:05:09.231Z,13.80
2023-05-28T01:07:37.134Z,13.80
2023-05-28T01:10:05.069Z,13.80
2023-05-28T01:12:32.839Z,13.70
2023-05-28T01:15:00.511Z,13.70
2023-05-28T01:17:28.634Z,13.70
2023-05-28T01:20:06.642Z,13.70
2023-05-28T01:22:41.461Z,13.60
2023-05-28T01:25:12.014Z,13.60
2023-05-28T01:27:40.952Z,13.60
2023-05-28T01:30:13.097Z,13.50
2023-05-28T01:32:41.676Z,13.50
2023-05-28T01:35:10.670Z,13.50
2023-05-28T01:37:46.640Z,13.50
2023-05-28T01:40:15.815Z,13.50
2023-05-28T01:42:45.062Z,13.50
2023-05-28T01:45:16.261Z,13.50
2023-05-28T01:47:46.517Z,13.40
2023-05-28T01:50:14.692Z,13.30
2023-05-28T01:52:42.184Z,13.30
2023-05-28T01:55:15.654Z,13.30
2023-05-28T01:57:45.317Z,13.30
2023-05-28T02:00:15.667Z,13.40
2023-05-28T02:02:43.915Z,13.40
2023-05-28T02:05:14.256Z,13.30
2023-05-28T02:07:43.338Z,13.30
2023-05-28T02:10:10.894Z,13.30
2023-05-28T02:12:38.214Z,13.40
2023-05-28T02:15:06.386Z,13.30
2023-05-28T02:17:34.654Z,13.30
2023-05-28T02:20:03.341Z,13.30
2023-05-28T02:22:30.766Z,13.30
2023-05-28T02:24:58.268Z,13.20
2023-05-28T02:27:25.934Z,13.20
2023-05-28T02:29:53.294Z,13.20
2023-05-28T02:32:20.759Z,13.10
2023-05-28T02:34:50.704Z,13.10
2023-05-28T02:37:18.178Z,13.00
2023-05-28T02:39:45.637Z,13.00
2023-05-28T02:42:13.040Z,13.00
2023-05-28T02:44:40.470Z,12.90
2023-05-28T02:47:09.082Z,12.90
2023-05-28T02:49:37.963Z,12.90
2023-05-28T02:52:05.972Z,12.90
2023-05-28T02:54:39.992Z,12.90
2023-05-28T02:57:07.329Z,12.90
2023-05-28T02:59:34.955Z,12.90
2023-05-28T03:02:02.338Z,12.90
2023-05-28T03:04:29.721Z,12.90
2023-05-28T03:06:57.752Z,12.90
2023-05-28T03:09:25.250Z,12.90
2023-05-28T03:11:54.027Z,12.90
2023-05-28T03:14:22.124Z,12.90
2023-05-28T03:16:49.480Z,12.90
2023-05-28T03:19:23.837Z,13.00
2023-05-28T03:21:51.721Z,13.00
2023-05-28T03:24:21.460Z,13.10
2023-05-28T03:26:53.340Z,13.10
2023-05-28T03:29:24.455Z,13.10
2023-05-28T03:32:00.129Z,13.20
2023-05-28T03:34:28.059Z,13.20
2023-05-28T03:36:55.554Z,13.30
2023-05-28T03:39:24.444Z,13.40
2023-05-28T03:41:53.327Z,13.50
2023-05-28T03:44:23.334Z,13.50
2023-05-28T03:46:51.459Z,13.60
2023-05-28T03:49:18.911Z,13.80
2023-05-28T03:51:46.683Z,14.10
2023-05-28T03:54:14.140Z,14.30
2023-05-28T03:56:41.502Z,14.40
2023-05-28T03:59:09.280Z,14.40
2023-05-28T04:01:37.900Z,14.50
2023-05-28T04:04:07.608Z,14.70
2023-05-28T04:06:35.341Z,15.00
2023-05-28T04:09:02.906Z,15.20
2023-05-28T04:11:31.625Z,15.40
2023-05-28T04:14:00.522Z,15.50
2023-05-28T04:16:29.198Z,15.70
2023-05-28T04:18:57.813Z,16.00
2023-05-28T04:21:25.378Z,16.30
2023-05-28T04:23:52.735Z,16.60
2023-05-28T04:26:21.621Z,16.90
2023-05-28T04:28:49.868Z,17.20
2023-05-28T04:31:17.961Z,17.40
2023-05-28T04:33:47.449Z,17.60
2023-05-28T04:36:15.422Z,17.80
2023-05-28T04:38:44.340Z,18.00
2023-05-28T04:41:15.269Z,18.20
2023-05-28T04:43:42.758Z,18.50
2023-05-28T04:46:11.186Z,18.80
2023-05-28T04:48:38.679Z,19.00
2023-05-28T04:51:08.326Z,19.10
2023-05-28T04:53:36.154Z,19.20
2023-05-28T04:56:05.154Z,19.40
2023-05-28T04:58:33.629Z,19.50
2023-05-28T05:01:01.525Z,19.60
2023-05-28T05:03:32.953Z,19.80
2023-05-28T05:06:02.420Z,19.90
2023-05-28T05:08:30.043Z,20.00
2023-05-28T05:10:57.551Z,20.20
2023-05-28T05:13:24.952Z,20.30
2023-05-28T05:15:53.374Z,20.30
2023-05-28T05:18:22.303Z,20.30
2023-05-28T05:20:49.995Z,20.40
2023-05-28T05:23:19.113Z,20.60
2023-05-28T05:25:49.369Z,20.60
2023-05-28T05:28:16.764Z,20.60
2023-05-28T05:30:44.843Z,20.60
2023-05-28T05:33:12.681Z,20.70
2023-05-28T05:36:00.061Z,20.90
2023-05-28T05:38:41.251Z,21.10
2023-05-28T05:41:28.940Z,21.20
2023-05-28T05:44:09.483Z,21.40
2023-05-28T05:46:37.275Z,21.40
2023-05-28T05:49:04.743Z,21.40
2023-05-28T05:51:33.758Z,21.50
2023-05-28T05:54:04.371Z,21.50
2023-05-28T05:56:32.083Z,21.70
2023-05-28T05:59:01.496Z,21.80
2023-05-28T06:01:31.607Z,21.80
2023-05-28T06:04:00.575Z,22.00
2023-05-28T06:06:51.119Z,22.20
2023-05-28T06:09:47.173Z,22.40
2023-05-28T06:12:22.543Z,22.40
2023-05-28T06:14:52.988Z,22.40
2023-05-28T06:17:22.219Z,22.20
2023-05-28T06:19:52.120Z,22.00
2023-05-28T06:22:20.293Z,22.00
2023-05-28T06:24:51.182Z,21.90
2023-05-28T06:27:21.072Z,21.90
2023-05-28T06:29:48.695Z,21.90
2023-05-28T06:32:16.038Z,21.90
2023-05-28T06:34:44.672Z,22.30
2023-05-28T06:37:13.976Z,22.50
2023-05-28T06:39:42.454Z,22.60
2023-05-28T06:42:10.123Z,22.70
2023-05-28T06:44:40.835Z,22.90
2023-05-28T06:47:17.034Z,23.00
2023-05-28T06:49:45.378Z,22.80
2023-05-28T06:52:13.008Z,22.70
2023-05-28T06:54:41.939Z,22.80
2023-05-28T06:57:10.806Z,22.90
2023-05-28T06:59:55.459Z,22.90
2023-05-28T07:02:42.274Z,22.50
2023-05-28T07:05:23.991Z,22.20
2023-05-28T07:07:52.071Z,22.20
2023-05-28T07:10:21.182Z,22.30
2023-05-28T07:12:49.698Z,22.30
2023-05-28T07:15:18.584Z,22.10
2023-05-28T07:17:47.403Z,22.10
2023-05-28T07:20:14.995Z,22.50
2023-05-28T07:22:52.785Z,22.40
2023-05-28T07:25:20.710Z,22.30
2023-05-28T07:27:48.032Z,22.50
2023-05-28T07:30:23.672Z,22.70
2023-05-28T07:32:52.938Z,22.80
2023-05-28T07:35:21.865Z,22.80
2023-05-28T07:37:49.327Z,23.00
2023-05-28T07:40:17.961Z,23.00
2023-05-28T07:42:47.979Z,23.00
2023-05-28T07:45:18.917Z,23.10
2023-05-28T07:47:46.587Z,23.20
2023-05-28T07:50:33.247Z,23.20
2023-05-28T07:53:10.123Z,23.00
2023-05-28T07:55:38.489Z,23.00
2023-05-28T07:58:07.191Z,23.00
2023-05-28T08:00:37.796Z,23.00
2023-05-28T08:03:08.104Z,22.90
2023-05-28T08:05:42.933Z,23.10
2023-05-28T08:08:10.619Z,23.20
2023-05-28T08:10:39.284Z,23.40
2023-05-28T08:13:07.190Z,23.70
2023-05-28T08:15:37.880Z,23.70
2023-05-28T08:18:07.504Z,23.60
2023-05-28T08:20:36.845Z,23.40
2023-05-28T08:23:31.750Z,23.40
2023-05-28T08:26:00.260Z,23.40
2023-05-28T08:28:32.383Z,23.50
2023-05-28T08:31:01.279Z,23.60
2023-05-28T08:33:42.013Z,23.60
2023-05-28T08:36:09.702Z,23.70
2023-05-28T08:38:37.699Z,23.60
2023-05-28T08:41:07.341Z,23.60
2023-05-28T08:43:35.068Z,23.60
2023-05-28T08:46:02.483Z,23.60
2023-05-28T08:48:41.226Z,23.50
2023-05-28T08:51:10.858Z,23.60
2023-05-28T08:53:47.053Z,23.50
2023-05-28T08:56:19.157Z,23.40
2023-05-28T08:58:47.931Z,23.30
2023-05-28T09:01:15.855Z,23.40
2023-05-28T09:04:05.413Z,23.40
2023-05-28T09:06:41.488Z,23.30
2023-05-28T09:09:15.866Z,23.60
2023-05-28T09:11:48.907Z,23.80
2023-05-28T09:14:20.438Z,23.80
2023-05-28T09:16:50.182Z,23.70
2023-05-28T09:19:21.706Z,23.70
2023-05-28T09:21:57.096Z,24.00
2023-05-28T09:24:29.815Z,24.20
2023-05-28T09:27:25.083Z,24.40
2023-05-28T09:29:54.548Z,24.50
2023-05-28T09:32:22.119Z,24.60
2023-05-28T09:34:52.502Z,24.60
2023-05-28T09:37:21.477Z,24.40
2023-05-28T09:40:01.678Z,24.50
2023-05-28T09:42:45.052Z,24.50
2023-05-28T09:45:12.900Z,24.50
2023-05-28T09:47:44.947Z,24.60
2023-05-28T09:50:13.812Z,24.80
2023-05-28T09:52:45.897Z,25.00
2023-05-28T09:55:21.780Z,25.30
2023-05-28T09:58:06.624Z,25.40
2023-05-28T10:00:36.842Z,25.40
2023-05-28T10:03:24.030Z,25.50
2023-05-28T10:06:00.785Z,25.50
2023-05-28T10:08:29.032Z,25.60
2023-05-28T10:10:56.988Z,25.80
2023-05-28T10:13:24.422Z,25.90
2023-05-28T10:15:54.784Z,25.90
2023-05-28T10:18:23.724Z,26.00
2023-05-28T10:20:51.941Z,26.00
2023-05-28T10:23:21.450Z,26.20
2023-05-28T10:25:49.048Z,26.00
2023-05-28T10:28:17.737Z,26.00
2023-05-28T10:30:45.091Z,26.10
2023-05-28T10:33:18.350Z,26.20
2023-05-28T10:36:04.109Z,26.30
2023-05-28T10:38:31.558Z,26.00
2023-05-28T10:41:04.234Z,25.80
2023-05-28T10:43:43.869Z,25.80
2023-05-28T10:46:24.139Z,25.90
2023-05-28T10:49:11.734Z,26.20
2023-05-28T10:51:55.407Z,26.30
2023-05-28T10:54:35.180Z,26.30
2023-05-28T10:57:11.009Z,26.40
2023-05-28T10:59:50.043Z,26.50
2023-05-28T11:02:27.136Z,26.70
2023-05-28T11:05:02.230Z,26.80
2023-05-28T11:07:41.877Z,26.90
2023-05-28T11:10:17.128Z,27.10
2023-05-28T11:12:46.343Z,27.00
2023-05-28T11:15:15.564Z,27.00
2023-05-28T11:17:45.475Z,26.90
2023-05-28T11:20:28.748Z,27.00
2023-05-28T11:22:56.850Z,27.10
2023-05-28T11:25:27.971Z,27.20
2023-05-28T11:27:58.617Z,27.20
2023-05-28T11:30:27.328Z,26.90
2023-05-28T11:32:55.954Z,26.80
2023-05-28T11:35:24.870Z,26.90
2023-05-28T11:37:54.217Z,27.10
2023-05-28T11:40:22.808Z,27.10
2023-05-28T11:42:53.220Z,27.20
2023-05-28T11:45:21.965Z,27.50
2023-05-28T11:47:49.887Z,27.70
2023-05-28T11:50:17.689Z,27.80
2023-05-28T11:52:46.731Z,28.00
2023-05-28T11:55:16.881Z,28.10
2023-05-28T11:58:01.964Z,28.10
2023-05-28T12:00:37.586Z,27.90
2023-05-28T12:03:06.406Z,27.90
2023-05-28T12:05:41.008Z,27.90
2023-05-28T12:08:11.689Z,27.90
2023-05-28T12:10:39.846Z,27.90
2023-05-28T12:13:08.259Z,28.00
2023-05-28T12:15:36.084Z,28.10
2023-05-28T12:18:04.913Z,28.20
2023-05-28T12:20:43.357Z,28.30
2023-05-28T12:23:14.050Z,28.00
2023-05-28T12:25:44.773Z,27.90
2023-05-28T12:28:15.523Z,28.00
2023-05-28T12:30:45.921Z,28.40
2023-05-28T12:33:14.320Z,28.50
2023-05-28T12:35:45.264Z,28.50
2023-05-28T12:38:14.918Z,28.50
2023-05-28T12:40:43.414Z,28.30
2023-05-28T12:43:11.726Z,28.20
2023-05-28T12:45:39.446Z,28.20
2023-05-28T12:48:09.634Z,28.10
2023-05-28T12:50:37.665Z,28.10
2023-05-28T12:53:08.656Z,28.30
2023-05-28T12:55:36.722Z,28.30
2023-05-28T12:58:05.822Z,28.10
2023-05-28T13:00:33.441Z,27.90
2023-05-28T13:03:03.737Z,27.80
2023-05-28T13:05:34.695Z,28.00
2023-05-28T13:08:03.024Z,28.10
2023-05-28T13:10:30.977Z,28.10
2023-05-28T13:12:58.578Z,28.00
2023-05-28T13:15:25.927Z,27.80
2023-05-28T13:17:53.407Z,27.70
2023-05-28T13:20:21.012Z,27.60
2023-05-28T13:22:48.404Z,27.70
2023-05-28T13:25:16.814Z,27.90
2023-05-28T13:27:45.736Z,28.00
2023-05-28T13:30:14.089Z,27.90
2023-05-28T13:32:43.006Z,27.70
2023-05-28T13:35:13.394Z,27.60
2023-05-28T13:37:42.029Z,27.60
2023-05-28T13:40:13.103Z,27.70
2023-05-28T13:42:42.177Z,27.90
2023-05-28T13:45:11.433Z,28.00
2023-05-28T13:47:41.137Z,27.70
2023-05-28T13:50:10.222Z,27.60
2023-05-28T13:52:39.291Z,27.50
2023-05-28T13:55:08.339Z,27.70
2023-05-28T13:57:37.236Z,28.00
2023-05-28T14:00:08.484Z,28.30
2023-05-28T14:02:42.663Z,28.50
2023-05-28T14:05:10.827Z,28.50
2023-05-28T14:07:39.238Z,28.40
2023-05-28T14:10:07.356Z,28.20
2023-05-28T14:12:35.714Z,28.10
2023-05-28T14:15:04.427Z,27.80
2023-05-28T14:17:32.862Z,27.70
2023-05-28T14:20:01.068Z,27.80
2023-05-28T14:22:29.915Z,28.00
2023-05-28T14:24:57.779Z,28.10
2023-05-28T14:27:25.570Z,28.20
2023-05-28T14:29:54.094Z,28.20
2023-05-28T14:32:22.907Z,28.40
2023-05-28T14:34:51.403Z,28.60
2023-05-28T14:37:20.093Z,28.70
2023-05-28T14:39:48.734Z,28.60
2023-05-28T14:42:17.633Z,28.60
2023-05-28T14:44:46.848Z,28.70
2023-05-28T14:47:15.204Z,28.70
2023-05-28T14:49:43.030Z,28.70
2023-05-28T14:52:27.990Z,28.70
2023-05-28T14:54:59.044Z,28.60
2023-05-28T14:57:28.970Z,28.60
2023-05-28T15:00:07.968Z,28.60
2023-05-28T15:02:35.621Z,28.70
2023-05-28T15:05:06.856Z,28.60
2023-05-28T15:07:36.463Z,28.50
2023-05-28T15:10:04.461Z,28.40
2023-05-28T15:12:32.045Z,28.20
2023-05-28T15:15:02.313Z,28.20
2023-05-28T15:17:29.637Z,28.20
2023-05-28T15:19:58.798Z,28.00
2023-05-28T15:22:27.486Z,27.90
2023-05-28T15:24:55.104Z,27.80
2023-05-28T15:27:22.819Z,27.80
2023-05-28T15:29:50.866Z,27.90
2023-05-28T15:32:19.774Z,28.00
2023-05-28T15:34:48.133Z,28.20
2023-05-28T15:37:15.925Z,28.40
2023-05-28T15:39:44.178Z,28.50
2023-05-28T15:42:13.808Z,28.40
2023-05-28T15:44:41.522Z,28.20
2023-05-28T15:47:09.072Z,28.10
2023-05-28T15:49:36.918Z,28.00
2023-05-28T15:52:05.232Z,27.80
2023-05-28T15:54:32.995Z,27.60
2023-05-28T15:57:01.097Z,27.50
2023-05-28T15:59:29.780Z,27.40
2023-05-28T16:01:59.507Z,27.20
2023-05-28T16:04:30.621Z,27.10
2023-05-28T16:06:59.063Z,27.10
2023-05-28T16:09:26.868Z,27.10
2023-05-28T16:11:57.590Z,27.10
2023-05-28T16:14:29.903Z,27.10
2023-05-28T16:16:57.640Z,27.00
2023-05-28T16:19:25.148Z,26.90
2023-05-28T16:21:52.992Z,26.90
2023-05-28T16:24:20.752Z,26.70
2023-05-28T16:26:52.434Z,26.60
2023-05-28T16:29:20.196Z,26.60
2023-05-28T16:31:49.542Z,26.60
2023-05-28T16:34:20.365Z,26.60
2023-05-28T16:37:19.232Z,26.60
2023-05-28T16:39:48.327Z,26.50
2023-05-28T16:42:16.249Z,26.50
2023-05-28T16:44:45.042Z,26.40
2023-05-28T16:47:14.074Z,26.40
2023-05-28T16:49:41.719Z,26.30
2023-05-28T16:52:12.540Z,26.20
2023-05-28T16:54:41.809Z,26.20
2023-05-28T16:57:09.187Z,26.00
2023-05-28T16:59:39.475Z,26.10
2023-05-28T17:02:07.518Z,26.30
2023-05-28T17:12:52.478Z,26.40
2023-05-28T17:15:21.256Z,26.30
2023-05-28T17:23:27.017Z,25.80
2023-05-28T17:25:55.722Z,25.70
2023-05-28T17:28:24.353Z,25.50
2023-05-28T17:33:37.210Z,25.20
2023-05-28T17:36:05.361Z,25.10
2023-05-28T17:38:38.491Z,25.10
2023-05-28T17:41:06.072Z,25.00
2023-05-28T17:43:34.594Z,24.90
2023-05-28T17:46:04.591Z,24.80
2023-05-28T17:48:32.483Z,24.70
2023-05-28T17:51:00.213Z,24.60
2023-05-28T17:53:32.551Z,24.50
2023-05-28T17:56:04.546Z,24.40
2023-05-28T17:58:31.918Z,24.20
2023-05-28T18:00:59.385Z,24.20
2023-05-28T18:03:27.267Z,24.10
2023-05-28T18:05:55.238Z,24.00
2023-05-28T18:08:24.647Z,24.10
2023-05-28T18:10:57.550Z,24.20
2023-05-28T18:13:27.148Z,24.20
2023-05-28T18:15:56.855Z,24.30
2023-05-28T18:18:25.827Z,24.30
2023-05-28T18:20:54.918Z,24.20
2023-05-28T18:23:22.919Z,24.10
2023-05-28T18:25:50.631Z,24.00
2023-05-28T18:28:18.019Z,23.80
2023-05-28T18:30:46.338Z,23.60
2023-05-28T18:33:15.063Z,23.40
2023-05-28T18:35:43.327Z,23.30
2023-05-28T18:38:12.173Z,23.10
2023-05-28T18:40:40.451Z,23.00
2023-05-28T18:43:08.857Z,22.80
2023-05-28T18:45:36.404Z,22.60
2023-05-28T18:48:05.337Z,22.60
2023-05-28T18:50:33.392Z,22.50
2023-05-28T18:53:01.932Z,22.40
2023-05-28T18:55:29.375Z,22.20
2023-05-28T18:57:56.721Z,22.10
2023-05-28T19:03:05.747Z,22.00
2023-05-28T19:05:33.125Z,21.90
2023-05-28T19:08:00.815Z,21.80
2023-05-28T19:10:28.133Z,21.70
2023-05-28T19:12:55.724Z,21.70
2023-05-28T19:15:23.362Z,21.70
2023-05-28T19:20:32.501Z,21.60
2023-05-28T19:23:00.004Z,21.50
2023-05-28T19:25:27.692Z,21.40
2023-05-28T19:27:55.007Z,21.40
2023-05-28T19:30:22.442Z,21.40
2023-05-28T19:32:50.042Z,21.30
2023-05-28T19:38:04.647Z,21.20
2023-05-28T19:43:23.009Z,21.00
2023-05-28T19:45:50.553Z,21.00
2023-05-28T19:48:17.986Z,20.90
2023-05-28T19:50:45.655Z,20.80
2023-05-28T19:53:13.109Z,20.70
2023-05-28T19:55:40.482Z,20.70
2023-05-28T19:58:09.431Z,20.70
2023-05-28T20:00:39.791Z,20.60
2023-05-28T20:03:07.557Z,20.60
2023-05-28T20:05:34.996Z,20.60
2023-05-28T20:08:02.316Z,20.60
2023-05-28T20:10:29.716Z,20.60
2023-05-28T20:12:57.017Z,20.60
2023-05-28T20:18:06.702Z,20.50
2023-05-28T20:23:27.941Z,20.40
2023-05-28T20:25:55.709Z,20.30
2023-05-28T20:28:23.383Z,20.20
2023-05-28T20:30:50.917Z,20.20
2023-05-28T20:33:18.239Z,20.20
2023-05-28T20:35:46.177Z,20.20
2023-05-28T20:38:13.755Z,20.20
2023-05-28T20:40:41.125Z,20.20
2023-05-28T20:43:08.737Z,20.10
2023-05-28T20:45:37.475Z,20.10
2023-05-28T20:48:05.431Z,20.00
2023-05-28T20:50:35.009Z,20.00
2023-05-28T20:53:03.792Z,20.00
2023-05-28T20:55:31.248Z,20.00
2023-05-28T20:58:01.127Z,19.90
2023-05-28T21:00:29.043Z,19.80
2023-05-28T21:02:58.526Z,19.70
2023-05-28T21:05:26.180Z,19.70
2023-05-28T21:07:53.679Z,19.60
2023-05-28T21:10:21.378Z,19.60
2023-05-28T21:12:49.051Z,19.50
2023-05-28T21:15:16.488Z,19.50
2023-05-28T21:17:44.189Z,19.40
2023-05-28T21:20:12.446Z,19.40
2023-05-28T21:22:39.940Z,19.30
2023-05-28T21:27:52.175Z,19.20
2023-05-28T21:30:19.482Z,19.10
2023-05-28T21:32:47.630Z,19.00
2023-05-28T21:35:15.449Z,19.00
2023-05-28T21:37:44.228Z,18.90
2023-05-28T21:40:11.845Z,18.90
2023-05-28T21:42:39.531Z,18.80
2023-05-28T21:45:12.028Z,18.80
2023-05-28T21:50:25.731Z,18.70
2023-05-28T21:53:04.521Z,18.60
2023-05-28T21:55:32.185Z,18.50
2023-05-28T21:57:59.632Z,18.50
2023-05-28T22:00:28.438Z,18.40
2023-05-28T22:02:55.976Z,18.30
2023-05-28T22:05:24.384Z,18.20
2023-05-28T22:10:33.614Z,18.20
2023-05-28T22:13:02.750Z,18.20
2023-05-28T22:15:30.386Z,18.10
2023-05-28T22:17:59.031Z,18.00
2023-05-28T22:20:41.780Z,17.90
2023-05-28T22:23:10.886Z,17.90
2023-05-28T22:25:42.354Z,17.80
2023-05-28T22:28:10.545Z,17.80
2023-05-28T22:30:38.040Z,17.70
2023-05-28T22:33:05.561Z,17.70
2023-05-28T22:35:32.989Z,17.60
2023-05-28T22:38:00.592Z,17.50
2023-05-28T22:40:31.239Z,17.50
2023-05-28T22:42:59.012Z,17.40
2023-05-28T22:45:26.365Z,17.40
2023-05-28T22:47:56.871Z,17.30
2023-05-28T22:50:24.481Z,17.20
2023-05-28T22:52:52.016Z,17.10
2023-05-28T22:55:19.546Z,17.10
2023-05-28T22:57:47.069Z,17.00
2023-05-28T23:00:15.278Z,17.00
2023-05-28T23:02:46.143Z,16.90
2023-05-28T23:05:14.625Z,16.90
2023-05-28T23:07:43.143Z,16.80
2023-05-28T23:10:11.151Z,16.80
2023-05-28T23:12:38.754Z,16.70
2023-05-28T23:15:06.696Z,16.70
2023-05-28T23:17:36.787Z,16.60
2023-05-28T23:20:09.404Z,16.60
2023-05-28T23:22:37.484Z,16.60
2023-05-28T23:25:05.324Z,16.60
2023-05-28T23:27:32.678Z,16.50
2023-05-28T23:29:59.962Z,16.50
2023-05-28T23:32:27.380Z,16.40
2023-05-28T23:34:54.662Z,16.40
2023-05-28T23:37:21.976Z,16.40
2023-05-28T23:39:49.643Z,16.40
2023-05-28T23:42:16.968Z,16.30
2023-05-28T23:44:44.329Z,16.30
2023-05-28T23:47:11.681Z,16.20
2023-05-28T23:52:29.243Z,16.10
2023-05-28T23:54:56.628Z,16.10
2023-05-28T23:57:23.984Z,16.10
2023-05-28T23:59:51.262Z,16.00
